Date,TemperatureHighF,TemperatureAvgF,TemperatureLowF,DewpointHighF,DewpointAvgF,DewpointLowF,HumidityHigh,HumidityAvg,HumidityLow,PressureMaxIn,PressureMinIn,WindSpeedMaxMPH,WindSpeedAvgMPH,GustSpeedMaxMPH,PrecipitationSumIn
2013-1-1,39.0,35.6,32.0,27.2,25.0,21.9,70,65,57,30.41,30.30,4,1,8,0.17
2013-1-2,42.0,32.3,27.0,25.6,19.5,15.7,68,60,40,30.30,30.16,4,0,8,0.00
2013-1-3,42.0,33.9,26.0,28.0,20.2,15.4,68,58,35,30.19,30.08,4,1,10,0.01
2013-1-4,47.0,41.4,38.0,33.8,29.7,24.1,66,63,57,30.30,30.15,5,2,12,0.00
2013-1-5,43.0,39.3,37.0,27.9,24.7,21.9,60,56,49,30.18,30.12,6,2,11,0.00
2013-1-6,47.0,41.2,36.0,34.5,29.3,23.1,69,62,55,30.20,30.01,6,2,13,0.30
2013-1-7,51.0,46.2,43.0,42.3,36.9,33.2,73,70,68,30.17,29.94,4,1,15,0.99
2013-1-8,51.0,47.8,43.0,42.3,38.8,33.5,73,71,65,30.16,29.84,5,1,17,0.30
2013-1-9,50.0,41.6,35.0,38.7,31.3,25.2,72,67,62,29.97,29.69,7,1,20,0.92
2013-1-10,43.0,37.6,33.0,31.3,27.9,22.9,74,68,56,30.08,29.96,5,0,9,0.03
2013-1-11,38.0,33.3,28.0,26.3,22.6,17.4,73,65,46,30.27,30.08,5,1,11,0.00
2013-1-12,39.0,31.6,26.0,25.9,20.1,14.8,70,62,45,30.36,30.26,4,1,8,0.00
2013-1-13,37.0,29.1,23.0,23.3,17.3,11.9,67,61,50,30.43,30.35,5,1,12,0.00
2013-1-14,38.0,34.3,31.0,26.5,23.0,19.5,68,63,57,30.49,30.41,4,1,10,0.03
2013-1-15,39.0,35.8,33.0,27.9,25.3,22.2,70,66,60,30.59,30.49,5,1,9,0.01
2013-1-16,40.0,36.2,34.0,27.2,24.9,22.7,68,63,58,30.58,30.43,5,2,9,0.00
2013-1-17,41.0,35.9,33.0,29.0,25.2,22.2,69,65,58,30.45,30.27,5,2,10,0.00
2013-1-18,45.0,35.6,30.0,29.4,23.7,18.9,68,62,51,30.27,30.21,6,1,12,0.00
2013-1-19,40.0,34.9,32.0,26.4,24.3,22.2,71,65,55,30.31,30.24,4,1,9,0.00
2013-1-20,42.0,34.7,31.0,25.6,23.3,21.3,70,63,48,30.32,30.21,5,1,9,0.00
2013-1-21,42.0,33.1,26.0,24.7,19.6,15.5,67,58,45,30.25,30.09,6,2,12,0.00
2013-1-22,43.0,35.2,29.0,23.3,18.9,16.1,61,52,41,30.13,29.93,6,3,12,0.00
2013-1-23,39.0,37.1,35.0,28.0,22.8,16.6,67,56,43,30.18,29.89,7,2,15,0.10
2013-1-24,46.0,40.5,36.0,34.5,29.6,25.0,70,65,57,30.20,30.06,6,2,10,0.22
2013-1-25,52.0,45.6,42.0,39.8,35.1,31.7,71,67,61,30.09,29.94,3,0,9,0.02
2013-1-26,49.0,43.6,41.0,37.8,33.0,30.1,70,66,59,30.06,29.91,4,0,12,0.18
2013-1-27,45.0,41.3,38.0,33.6,31.1,28.0,70,67,62,30.11,30.02,4,0,8,0.30
2013-1-28,44.0,42.3,39.0,35.2,32.9,29.3,71,69,66,30.15,30.06,3,0,9,0.73
2013-1-29,50.0,46.0,44.0,39.5,36.2,34.3,71,68,62,30.38,30.14,3,0,7,0.18
2013-1-30,52.0,47.5,45.0,41.8,37.6,35.4,71,68,65,30.37,30.33,6,1,10,0.33
2013-1-31,52.0,47.5,44.0,41.4,37.7,34.1,72,69,64,30.38,30.27,4,0,8,0.06
2013-2-1,51.0,46.2,40.0,40.0,35.4,30.3,72,66,55,30.32,30.24,5,1,10,0.01
2013-2-2,52.0,42.1,36.0,36.3,31.0,25.7,72,65,51,30.27,30.19,3,0,6,0.00
2013-2-3,49.0,44.2,37.0,36.1,33.4,27.8,71,66,59,30.27,30.18,5,1,9,0.00
2013-2-4,53.0,47.0,43.0,38.1,34.3,31.3,69,61,49,30.19,29.91,3,0,9,0.00
2013-2-5,56.0,47.8,44.0,39.5,34.6,28.5,76,61,36,29.99,29.87,5,2,14,0.13
2013-2-6,51.0,46.4,42.0,37.6,34.0,30.6,68,62,55,30.05,29.80,7,2,18,0.14
2013-2-7,52.0,42.5,32.0,33.5,28.3,20.8,69,58,33,30.14,29.87,5,1,12,0.00
2013-2-8,48.0,38.9,31.0,32.1,25.1,19.9,73,59,38,30.24,30.14,8,2,15,0.01
2013-2-9,50.0,42.3,35.0,34.5,30.0,22.5,69,62,50,30.25,30.19,3,0,7,0.00
2013-2-10,48.0,41.8,36.0,34.5,28.7,26.1,71,60,44,30.30,30.25,4,1,10,0.00
2013-2-11,50.0,44.7,41.0,35.3,32.3,28.3,68,62,52,30.32,30.26,5,1,10,0.05
2013-2-12,55.0,47.9,44.0,41.8,37.5,34.1,70,67,59,30.38,30.31,4,0,7,0.14
2013-2-13,50.0,45.4,37.0,37.9,33.0,26.0,74,62,49,30.44,30.33,6,1,15,0.02
2013-2-14,50.0,43.6,36.0,37.5,32.9,25.4,71,66,58,30.48,30.44,6,0,11,0.00
2013-2-15,57.0,47.3,40.0,36.3,33.7,28.8,68,60,42,30.44,30.15,6,1,12,0.00
2013-2-16,53.0,44.4,37.0,40.0,32.7,26.9,73,64,45,30.22,30.16,8,1,18,0.09
2013-2-17,51.0,41.7,35.0,34.5,28.3,23.3,71,60,37,30.23,30.07,4,0,8,0.00
2013-2-18,51.0,43.5,38.0,32.2,29.1,25.7,68,57,43,30.07,29.75,5,1,18,0.04
2013-2-19,52.0,43.2,35.0,32.2,27.4,18.9,68,55,27,29.99,29.72,6,1,12,0.02
2013-2-20,50.0,41.3,33.0,33.2,29.2,21.4,68,62,48,30.05,29.97,5,1,12,0.21
2013-2-21,49.0,44.0,41.0,36.6,33.1,30.3,69,65,58,30.12,30.03,3,0,11,0.30
2013-2-22,51.0,43.4,37.0,40.4,32.8,27.1,70,66,58,30.11,29.84,7,2,18,0.87
2013-2-23,49.0,41.5,37.0,36.0,29.5,24.7,70,63,46,30.36,30.01,9,1,20,0.39
2013-2-24,52.0,45.1,38.0,33.5,28.9,23.6,68,54,39,30.37,29.98,6,2,15,0.00
2013-2-25,48.0,42.8,39.0,33.8,29.8,25.9,67,60,44,30.31,29.97,8,2,29,0.39
2013-2-26,52.0,43.2,34.0,34.0,28.0,23.4,70,56,35,30.33,30.19,6,1,16,0.01
2013-2-27,55.0,48.0,43.0,36.0,32.1,28.4,65,54,44,30.25,30.19,5,1,18,0.02
2013-2-28,55.0,50.6,46.0,44.3,40.8,35.3,72,69,65,30.33,30.13,4,0,10,0.77
2013-3-1,59.0,52.6,48.0,46.2,42.1,38.3,72,67,55,30.36,30.25,4,1,10,0.01
2013-3-2,59.0,47.4,37.0,43.8,36.5,27.1,73,66,54,30.25,30.10,6,1,12,0.04
2013-3-3,54.0,41.0,34.0,32.1,27.7,24.1,71,60,38,30.25,30.20,6,1,20,0.01
2013-3-4,57.0,41.3,31.0,29.0,14.7,-32.2,73,44,2,30.22,29.89,6,1,14,0.01
2013-3-5,52.0,42.7,34.0,34.0,29.6,19.9,67,60,45,29.89,29.69,4,0,12,0.15
2013-3-6,48.0,44.4,41.0,36.8,33.6,30.9,69,66,60,29.92,29.59,4,0,11,0.55
2013-3-7,57.0,46.6,36.0,35.4,28.0,4.2,66,51,13,30.03,29.92,5,1,11,0.00
2013-3-8,55.0,42.9,33.0,31.7,26.4,14.9,70,54,21,30.17,30.02,6,1,11,0.00
2013-3-9,55.0,42.4,33.0,33.8,25.8,12.3,70,54,18,30.42,30.17,4,1,10,0.00
2013-3-10,51.0,43.7,34.0,36.3,30.9,22.0,67,61,51,30.43,30.35,3,0,5,0.05
2013-3-11,58.0,50.1,45.0,40.0,36.7,33.6,68,60,45,30.36,30.17,4,0,10,0.05
2013-3-12,58.0,52.7,50.0,43.3,39.4,35.9,67,61,47,30.17,30.10,3,0,10,0.01
2013-3-13,61.0,53.4,47.0,40.8,38.4,34.8,70,58,39,30.17,30.05,5,0,9,0.02
2013-3-14,56.0,50.4,47.0,40.5,37.3,32.4,71,61,46,30.14,30.01,5,1,12,0.02
2013-3-15,63.0,53.3,47.0,42.8,38.0,35.2,67,57,38,30.17,30.13,7,1,15,0.00
2013-3-16,54.0,47.2,40.0,39.4,34.7,27.0,69,62,49,30.13,29.98,7,1,17,0.43
2013-3-17,50.0,42.4,37.0,33.9,27.8,20.0,69,57,35,30.22,30.06,8,1,21,0.39
2013-3-18,54.0,44.3,37.0,37.3,28.1,17.3,65,54,26,30.22,30.14,5,1,14,0.08
2013-3-19,50.0,43.3,35.0,36.1,30.3,23.3,67,60,44,30.14,29.64,4,0,10,0.27
2013-3-20,54.0,46.4,38.0,41.9,34.5,25.9,71,63,47,30.10,29.50,7,2,25,0.68
2013-3-21,48.0,40.8,37.0,33.0,28.7,24.2,69,62,47,30.23,30.09,7,1,22,0.32
2013-3-22,48.0,39.4,34.0,31.3,26.6,22.9,69,60,40,30.33,30.22,7,1,18,0.15
2013-3-23,54.0,41.6,34.0,31.2,21.4,-5.3,67,49,10,30.33,30.23,5,0,10,0.00
2013-3-24,59.0,45.4,36.0,28.7,19.0,-12.0,63,40,5,30.23,30.06,5,0,9,0.00
2013-3-25,64.0,48.9,37.0,31.7,16.3,-39.4,63,36,1,30.07,29.89,4,1,10,0.00
2013-3-26,63.0,51.9,46.0,36.7,30.4,23.0,61,45,24,29.99,29.94,5,1,10,0.01
2013-3-27,64.0,53.2,46.0,39.6,32.4,1.5,67,50,8,29.98,29.88,5,1,15,0.36
2013-3-28,63.0,53.7,47.0,43.6,35.8,11.4,71,53,13,30.10,29.97,4,1,9,0.24
2013-3-29,67.0,55.3,47.0,41.0,32.9,14.6,68,46,15,30.17,30.10,5,1,9,0.00
2013-3-30,70.0,54.2,40.0,37.6,25.9,7.0,68,40,9,30.16,29.96,7,2,15,0.00
2013-3-31,71.0,54.2,42.0,36.6,24.1,-35.1,63,41,1,29.98,29.85,9,1,20,0.00
2013-4-1,64.0,54.2,47.0,41.0,35.8,26.7,64,52,25,30.11,29.96,6,1,16,0.00
2013-4-2,61.0,53.0,48.0,43.3,37.0,34.4,64,55,41,30.14,30.09,4,1,10,0.00
2013-4-3,66.0,55.6,48.0,39.5,35.2,23.0,62,48,20,30.13,29.87,4,0,7,0.00
2013-4-4,59.0,54.3,51.0,46.8,40.9,36.3,65,60,51,29.88,29.66,5,1,14,0.45
2013-4-5,58.0,53.3,51.0,44.6,40.8,38.4,68,63,56,29.88,29.74,4,1,12,0.60
2013-4-6,60.0,51.4,46.0,40.0,34.8,23.3,67,54,25,29.92,29.69,6,2,15,0.54
2013-4-7,55.0,47.5,42.0,38.9,33.8,29.7,68,59,43,29.91,29.49,6,1,17,0.43
2013-4-8,56.0,47.3,41.0,38.2,32.2,27.2,69,56,37,30.22,29.91,6,2,17,0.00
2013-4-9,61.0,49.6,38.0,36.6,31.8,26.1,67,52,33,30.27,30.15,5,1,12,0.00
2013-4-10,58.0,52.1,48.0,43.7,34.9,29.6,63,52,41,30.25,30.00,7,2,18,0.26
2013-4-11,57.0,48.9,40.0,37.0,29.7,17.2,64,49,24,30.27,30.13,7,1,18,0.04
2013-4-12,55.0,45.1,37.0,37.8,31.0,24.2,65,58,32,30.14,29.79,4,0,11,0.31
2013-4-13,54.0,46.9,40.0,36.8,32.8,28.0,67,58,44,30.02,29.86,5,1,18,0.48
2013-4-14,58.0,47.7,42.0,37.6,33.1,24.0,68,58,28,30.01,29.91,6,1,13,0.54
2013-4-15,57.0,46.6,37.0,36.4,27.9,5.0,71,51,13,30.14,29.92,9,2,20,0.08
2013-4-16,57.0,46.4,37.0,36.1,20.8,-30.9,68,46,2,30.32,30.12,9,2,22,0.01
2013-4-17,59.0,47.7,36.0,33.5,25.6,1.7,68,45,10,30.39,30.31,6,2,19,0.00
2013-4-18,61.0,51.2,45.0,38.9,32.6,26.8,64,50,31,30.39,30.22,5,1,9,0.06
2013-4-19,59.0,51.9,49.0,43.1,38.4,34.9,67,60,48,30.22,30.06,5,1,14,0.60
2013-4-20,59.0,50.4,46.0,37.9,34.2,30.3,68,54,36,30.26,30.20,7,2,17,0.05
2013-4-21,58.0,50.0,43.0,39.1,33.3,25.7,66,53,34,30.26,30.18,6,1,18,0.04
2013-4-22,61.0,49.7,39.0,32.6,7.1,-44.9,67,33,1,30.37,30.26,8,2,17,0.00
2013-4-23,65.0,50.0,35.0,29.7,-3.8,-46.1,64,27,1,30.32,30.11,9,2,19,0.00
2013-4-24,69.0,53.6,37.0,29.8,-1.9,-43.7,64,26,1,30.23,30.00,8,2,16,0.00
2013-4-25,70.0,54.0,41.0,34.9,22.1,-36.9,61,37,1,30.13,30.00,7,2,17,0.00
2013-4-26,73.0,56.3,46.0,38.7,11.9,-41.8,65,35,1,30.20,30.12,5,1,13,0.00
2013-4-27,60.0,51.5,42.0,38.6,32.9,23.9,62,50,34,30.20,30.16,6,1,13,0.01
2013-4-28,60.0,53.7,50.0,40.2,33.1,18.3,65,48,21,30.19,30.00,9,2,20,0.04
2013-4-29,54.0,49.1,41.0,39.3,26.7,4.2,64,44,13,30.17,29.99,8,2,22,0.20
2013-4-30,58.0,46.5,38.0,32.8,19.2,-15.6,65,39,5,30.38,30.17,8,2,23,0.00
2013-5-1,66.0,50.1,33.0,29.2,-5.5,-44.9,63,26,1,30.45,30.37,7,2,12,0.00
2013-5-2,75.0,57.9,41.0,28.9,-5.9,-39.4,54,17,1,30.40,30.21,9,2,18,0.00
2013-5-3,72.0,60.3,44.0,26.5,-9.7,-41.2,48,11,1,30.25,30.11,9,4,19,0.00
2013-5-4,78.0,64.2,49.0,34.0,-4.0,-39.4,52,16,1,30.11,29.89,10,3,25,0.00
2013-5-5,81.0,64.8,46.0,35.4,-2.9,-37.6,56,17,1,29.92,29.70,6,1,14,0.00
2013-5-6,73.0,59.2,49.0,40.6,31.6,14.6,68,39,11,29.87,29.77,7,2,17,0.00
2013-5-7,65.0,57.8,52.0,39.6,36.0,31.1,57,45,29,30.00,29.87,7,2,17,0.00
2013-5-8,70.0,60.1,54.0,40.7,37.2,29.9,57,44,24,30.11,30.00,6,2,15,0.00
2013-5-9,74.0,61.7,54.0,43.7,38.2,23.4,62,45,15,30.15,30.04,5,2,15,0.00
2013-5-10,77.0,62.3,52.0,44.6,39.0,28.9,67,45,17,30.14,30.05,6,2,16,0.00
2013-5-11,82.0,66.7,55.0,45.9,36.5,-30.9,59,38,2,30.15,29.97,5,1,15,0.00
2013-5-12,76.0,67.2,61.0,50.7,46.0,41.2,66,47,32,30.05,29.98,3,0,7,0.05
2013-5-13,73.0,62.9,53.0,51.3,43.3,26.8,66,51,24,30.14,29.93,8,2,25,0.03
2013-5-14,72.0,61.8,51.0,43.8,21.7,-35.1,65,34,1,30.15,30.04,4,1,11,0.00
2013-5-15,70.0,61.3,53.0,48.0,42.2,36.4,60,50,37,30.06,29.96,4,0,12,0.03
2013-5-16,68.0,61.1,60.0,47.0,45.4,43.2,62,56,42,29.96,29.88,4,1,10,0.05
2013-5-17,71.0,61.6,54.0,50.8,43.9,33.6,66,54,27,30.03,29.93,6,1,13,0.16
2013-5-18,71.0,62.2,55.0,49.4,44.6,39.9,67,53,36,30.19,30.02,5,0,10,0.02
2013-5-19,66.0,59.2,50.0,48.2,37.2,24.8,65,46,23,30.31,30.19,6,2,15,0.07
2013-5-20,67.0,56.3,48.0,38.7,31.2,7.1,60,42,10,30.27,29.89,6,2,14,0.01
2013-5-21,60.0,51.6,47.0,45.1,36.9,30.8,66,57,42,29.90,29.79,5,1,17,0.36
2013-5-22,56.0,49.6,46.0,41.4,37.5,34.1,67,63,55,29.90,29.86,4,1,10,0.96
2013-5-23,56.0,51.4,47.0,43.2,39.5,35.5,68,64,59,29.94,29.89,3,1,11,0.62
2013-5-24,64.0,54.1,48.0,44.7,40.1,36.3,69,59,40,30.01,29.89,4,0,12,0.62
2013-5-25,67.0,55.6,47.0,43.7,37.9,27.6,69,53,23,30.00,29.89,7,1,17,0.00
2013-5-26,68.0,57.6,52.0,47.5,42.6,36.8,69,58,40,29.94,29.87,4,1,10,0.36
2013-5-27,65.0,56.6,52.0,49.4,42.5,37.3,67,60,42,29.91,29.67,5,1,15,0.39
2013-5-28,65.0,57.1,52.0,46.0,40.7,33.2,65,55,35,29.85,29.72,5,1,10,0.13
2013-5-29,63.0,55.3,50.0,45.7,40.1,34.3,69,57,38,29.96,29.60,5,1,15,0.63
2013-5-30,67.0,56.5,49.0,44.3,38.2,29.4,67,52,26,30.15,29.96,4,1,12,0.06
2013-5-31,69.0,57.8,47.0,40.9,31.0,6.3,67,41,9,30.22,30.13,6,1,12,0.00
2013-6-1,69.0,59.0,49.0,42.4,33.4,15.3,64,42,13,30.14,29.95,5,1,17,0.00
2013-6-2,67.0,58.2,51.0,41.0,37.6,33.9,63,47,31,30.02,29.95,5,2,14,0.00
2013-6-3,67.0,57.5,49.0,40.3,35.0,30.2,64,45,26,30.04,29.96,6,2,17,0.00
2013-6-4,77.0,60.8,44.0,38.0,23.7,-31.5,67,36,1,30.06,29.90,6,2,13,0.00
2013-6-5,72.0,61.0,52.0,42.4,38.6,33.2,62,45,30,30.03,29.93,7,3,15,0.00
2013-6-6,73.0,59.9,50.0,40.6,35.9,25.8,65,43,21,29.98,29.91,7,2,17,0.00
2013-6-7,69.0,58.1,50.0,41.9,36.0,19.3,65,46,16,30.08,29.98,6,2,17,0.00
2013-6-8,67.0,57.0,47.0,37.2,30.2,22.5,61,39,19,30.10,29.99,6,2,17,0.00
2013-6-9,66.0,55.2,46.0,35.4,27.4,11.9,61,38,12,30.05,29.94,6,2,22,0.00
2013-6-10,64.0,52.2,41.0,33.1,26.7,16.9,65,40,16,29.97,29.85,5,2,16,0.00
2013-6-11,64.0,53.0,46.0,41.0,33.6,27.3,65,48,28,30.05,29.91,4,1,11,0.18
2013-6-12,58.0,50.2,46.0,38.7,32.7,23.3,64,52,26,30.07,30.03,4,0,12,0.15
2013-6-13,60.0,51.8,46.0,40.0,33.8,25.9,68,52,30,30.17,30.05,6,1,17,0.22
2013-6-14,63.0,53.0,44.0,39.0,32.1,22.4,66,47,24,30.17,29.93,5,1,10,0.00
2013-6-15,69.0,54.9,41.0,36.4,28.7,-15.2,67,42,3,29.94,29.83,5,2,18,0.00
2013-6-16,65.0,56.4,49.0,39.6,35.1,28.5,63,46,27,30.01,29.94,5,1,13,0.00
2013-6-17,70.0,57.9,52.0,40.5,32.1,-9.4,60,42,4,30.01,29.87,6,1,18,0.00
2013-6-18,64.0,52.7,45.0,42.8,35.2,18.8,68,54,18,29.94,29.87,5,1,13,0.23
2013-6-19,63.0,53.5,46.0,41.8,34.5,25.1,69,50,27,29.98,29.86,6,1,13,0.00
2013-6-20,66.0,57.3,48.0,42.2,35.1,26.6,64,45,25,30.04,29.94,6,1,14,0.01
2013-6-21,68.0,58.9,52.0,43.8,39.4,27.8,65,50,22,30.06,30.02,5,1,12,0.01
2013-6-22,76.0,61.8,48.0,44.6,21.5,-34.5,68,36,1,30.02,29.78,5,1,10,0.00
2013-6-23,71.0,62.8,57.0,48.2,44.8,33.7,66,53,35,29.79,29.57,4,0,12,0.14
2013-6-24,70.0,60.3,56.0,48.5,45.4,37.0,68,59,31,29.64,29.55,6,1,14,0.57
2013-6-25,69.0,60.8,55.0,50.1,46.3,41.0,70,59,39,29.77,29.61,4,1,12,0.15
2013-6-26,72.0,62.9,57.0,49.2,45.5,40.1,66,54,33,29.96,29.76,4,1,14,0.01
2013-6-27,76.0,64.0,58.0,54.0,49.3,43.0,70,59,37,30.05,29.92,5,1,10,0.09
2013-6-28,80.0,67.2,58.0,52.2,44.3,33.4,69,46,23,30.03,29.91,6,1,15,0.00
2013-6-29,78.0,67.5,58.0,46.6,37.2,14.6,61,37,9,29.99,29.85,5,2,15,0.00
2013-6-30,87.0,70.5,57.0,48.5,42.4,18.4,66,41,9,29.89,29.75,6,2,17,0.00
2013-7-1,83.0,72.1,64.0,52.7,48.5,44.0,61,45,28,29.92,29.83,7,3,17,0.00
2013-7-2,79.0,69.2,60.0,51.1,45.2,36.6,63,44,23,29.97,29.90,7,3,16,0.00
2013-7-3,73.0,63.2,54.0,46.6,35.7,17.8,61,39,14,30.05,29.93,7,2,18,0.00
2013-7-4,69.0,58.5,49.0,39.9,34.3,27.6,62,42,24,30.04,29.93,6,2,17,0.00
2013-7-5,70.0,58.4,48.0,41.9,35.8,28.6,63,45,22,29.94,29.83,6,1,15,0.00
2013-7-6,70.0,58.0,51.0,41.0,37.3,31.7,62,48,25,29.86,29.74,6,2,15,0.00
2013-7-7,71.0,59.4,52.0,41.5,39.0,34.6,64,48,29,29.86,29.78,7,2,15,0.00
2013-7-8,74.0,61.7,55.0,43.3,38.7,33.5,55,44,23,29.96,29.86,5,2,13,0.00
2013-7-9,76.0,63.2,53.0,47.8,41.5,31.4,69,48,24,29.95,29.84,7,3,17,0.00
2013-7-10,64.0,54.7,47.0,37.7,31.1,23.6,63,43,22,29.96,29.83,6,3,18,0.00
2013-7-11,68.0,55.9,43.0,39.6,27.5,12.7,66,38,12,29.94,29.84,6,2,14,0.00
2013-7-12,68.0,56.0,47.0,39.1,32.8,23.8,62,43,20,29.98,29.87,5,1,12,0.00
2013-7-13,72.0,58.2,44.0,36.8,17.2,-35.1,66,35,3,30.06,29.91,7,2,17,0.00
2013-7-14,78.0,62.6,49.0,42.0,20.8,-33.3,68,33,1,30.00,29.83,6,2,20,0.00
2013-7-15,77.0,66.1,54.0,43.3,9.1,-36.9,61,26,1,29.90,29.70,8,3,20,0.00
2013-7-16,81.0,65.6,49.0,42.4,24.1,-29.7,59,29,1,29.84,29.66,6,1,15,0.00
2013-7-17,70.0,59.4,53.0,44.7,38.7,30.9,63,48,25,30.04,29.84,5,1,15,0.01
2013-7-18,72.0,60.8,53.0,43.3,37.9,31.1,61,44,27,30.05,29.93,7,2,15,0.00
2013-7-19,78.0,65.0,57.0,47.1,43.8,39.6,62,48,27,30.01,29.88,8,3,20,0.00
2013-7-20,75.0,63.7,56.0,48.6,43.9,39.6,60,50,30,29.94,29.82,6,3,17,0.00
2013-7-21,73.0,63.2,56.0,45.2,43.1,40.5,61,49,33,29.86,29.77,6,2,18,0.00
2013-7-22,75.0,65.1,58.0,46.6,43.0,35.4,60,46,29,29.90,29.82,5,3,15,0.00
2013-7-23,82.0,66.9,58.0,51.2,45.4,36.6,65,49,20,29.90,29.78,6,3,18,0.00
2013-7-24,81.0,66.7,57.0,46.5,43.9,39.4,63,46,23,29.91,29.82,6,3,17,0.00
2013-7-25,82.0,67.8,57.0,46.5,41.0,30.0,63,41,17,29.94,29.88,6,3,15,0.00
2013-7-26,79.0,64.5,55.0,46.6,38.1,15.8,64,42,12,30.02,29.92,7,3,19,0.00
2013-7-27,69.0,58.9,52.0,42.4,35.5,26.8,61,44,23,30.01,29.87,6,2,18,0.00
2013-7-28,65.0,57.0,50.0,44.6,38.5,34.5,63,51,35,29.89,29.83,6,2,13,0.00
2013-7-29,67.0,59.0,53.0,41.0,36.2,28.3,56,44,25,29.87,29.79,6,2,16,0.00
2013-7-30,72.0,58.9,53.0,45.5,40.2,36.5,58,51,32,29.99,29.87,6,1,14,0.00
2013-7-31,72.0,63.7,58.0,48.5,45.6,42.7,65,53,36,29.95,29.84,5,2,14,0.00
2013-8-1,69.0,62.1,59.0,49.4,44.8,42.3,63,53,40,29.92,29.87,5,1,10,0.00
2013-8-2,74.0,64.0,56.0,49.4,45.3,38.9,64,52,29,29.94,29.89,4,1,10,0.00
2013-8-3,76.0,67.2,61.0,49.4,42.8,33.6,62,44,22,29.91,29.81,7,2,17,0.00
2013-8-4,80.0,64.8,59.0,49.4,46.6,40.0,66,53,24,29.84,29.71,5,2,12,0.00
2013-8-5,76.0,64.0,58.0,48.9,45.1,39.6,64,52,31,29.82,29.72,6,3,15,0.00
2013-8-6,80.0,63.7,56.0,45.7,41.2,28.2,64,47,15,29.81,29.70,6,2,14,0.00
2013-8-7,75.0,63.4,58.0,47.5,44.6,39.7,65,52,32,29.83,29.74,6,3,21,0.00
2013-8-8,72.0,64.2,56.0,52.2,46.2,39.5,65,53,35,29.83,29.69,7,2,17,0.00
2013-8-9,70.0,62.5,55.0,49.6,45.6,41.5,66,54,44,29.73,29.42,6,2,14,0.00
2013-8-10,72.0,64.2,59.0,50.1,46.8,43.2,64,54,38,29.54,29.44,5,2,13,0.01
2013-8-11,71.0,63.9,59.0,47.2,44.5,40.8,59,50,36,29.57,29.25,4,1,9,0.00
2013-8-12,76.0,65.3,59.0,47.5,39.9,21.8,60,43,14,29.34,29.25,6,2,15,0.00
2013-8-13,78.0,65.3,54.0,45.2,26.3,-32.1,64,37,1,30.03,29.23,4,1,10,0.00
2013-8-14,82.0,65.0,56.0,50.6,43.0,6.3,65,49,6,30.03,29.97,6,1,14,0.02
2013-8-15,72.0,66.0,62.0,57.8,53.8,50.1,70,65,55,30.54,29.94,5,0,9,0.13
2013-8-16,79.0,68.6,62.0,56.0,47.6,21.6,69,50,17,30.10,30.02,5,2,18,0.00
2013-8-17,75.0,66.2,59.0,50.5,46.5,38.9,67,51,29,30.12,30.05,6,2,17,0.00
2013-8-18,74.0,66.4,60.0,48.5,43.2,32.8,61,45,22,30.15,29.93,7,2,19,0.00
2013-8-19,74.0,64.5,56.0,48.5,44.3,34.4,67,50,26,30.22,29.56,7,2,17,0.00
2013-8-20,78.0,66.1,54.0,47.0,28.1,-32.7,65,37,1,30.24,30.11,9,2,18,0.00
2013-8-21,84.0,70.1,55.0,45.9,12.2,-32.7,65,26,1,30.13,29.96,6,2,18,0.00
2013-8-22,80.0,68.8,58.0,49.9,41.3,28.2,61,39,15,30.02,29.95,4,1,10,0.00
2013-8-23,74.0,65.8,61.0,48.9,43.3,30.8,59,46,21,30.04,30.00,5,1,11,0.00
2013-8-24,73.0,64.5,58.0,48.6,41.2,24.8,66,46,17,30.03,29.97,6,2,14,0.00
2013-8-25,71.0,63.4,54.0,50.8,45.9,41.6,66,54,38,30.04,29.99,4,0,9,0.03
2013-8-26,79.0,67.0,62.0,53.1,45.4,8.2,65,50,7,30.06,29.98,5,1,15,0.05
2013-8-27,82.0,69.3,63.0,56.0,49.8,36.6,68,52,20,30.06,29.90,5,1,14,0.07
2013-8-28,80.0,69.8,63.0,57.8,51.5,41.2,70,54,26,30.02,29.93,5,1,11,0.12
2013-8-29,79.0,70.0,65.0,62.0,55.9,52.2,71,62,45,30.14,29.95,5,1,18,0.35
2013-8-30,78.0,69.2,63.0,56.1,48.5,33.3,70,51,21,30.23,30.13,4,1,11,0.03
2013-8-31,82.0,67.7,57.0,51.2,42.8,17.6,70,46,9,30.16,29.93,5,1,12,0.00
2013-9-1,78.0,68.2,61.0,53.2,44.0,31.6,67,45,19,30.01,29.92,5,1,12,0.00
2013-9-2,74.0,67.0,61.0,51.1,46.3,41.2,62,48,33,30.02,29.97,4,1,11,0.04
2013-9-3,75.0,66.6,61.0,57.3,46.8,21.8,70,52,14,30.10,30.02,4,1,12,0.12
2013-9-4,74.0,64.9,58.0,53.4,49.4,45.2,70,58,41,30.14,30.07,4,1,13,0.00
2013-9-5,72.0,64.6,60.0,55.5,51.4,48.3,71,63,48,30.13,30.04,6,1,12,0.00
2013-9-6,68.0,63.3,59.0,56.5,51.9,48.5,72,67,56,30.19,30.07,2,0,7,0.00
2013-9-7,75.0,65.1,56.0,53.1,47.6,42.3,73,55,32,30.19,30.05,6,2,13,0.00
2013-9-8,77.0,64.3,53.0,51.0,45.8,28.9,72,54,17,30.17,30.07,7,2,15,0.00
2013-9-9,72.0,64.0,57.0,51.6,48.5,45.2,68,58,41,30.14,30.02,5,2,11,0.00
2013-9-10,77.0,64.8,55.0,50.0,45.7,37.7,72,53,25,30.05,29.91,8,2,13,0.00
2013-9-11,84.0,67.3,57.0,54.2,49.0,44.0,70,54,28,30.05,29.94,7,1,16,0.00
2013-9-12,73.0,65.8,61.0,54.0,49.9,47.4,65,57,44,30.08,30.00,6,2,15,0.00
2013-9-13,71.0,65.5,61.0,53.6,51.4,48.8,69,61,51,30.06,29.96,4,2,12,0.00
2013-9-14,76.0,68.0,63.0,55.3,52.1,50.2,66,57,42,29.96,29.82,4,1,12,0.00
2013-9-15,71.0,65.5,57.0,55.9,52.7,46.9,71,63,55,29.94,29.83,4,0,9,0.00
2013-9-16,67.0,59.5,56.0,52.5,48.4,45.5,72,67,55,30.04,29.93,5,0,12,0.00
2013-9-17,66.0,56.8,49.0,49.4,43.3,39.2,72,61,39,30.07,29.97,5,1,13,0.00
2013-9-18,73.0,59.9,53.0,49.6,43.1,31.4,73,57,23,30.17,30.07,5,1,10,0.00
2013-9-19,73.0,59.4,48.0,45.6,38.6,5.3,73,51,7,30.11,29.82,4,0,9,0.01
2013-9-20,74.0,62.0,54.0,51.9,47.3,42.0,70,60,34,29.83,29.69,5,1,13,0.04
2013-9-21,71.0,60.9,51.0,53.1,48.3,40.8,74,64,45,29.81,29.73,3,0,7,0.06
2013-9-22,65.0,57.8,55.0,53.8,47.1,43.3,72,67,59,29.87,29.69,4,1,14,0.63
2013-9-23,67.0,59.1,54.0,53.1,48.3,44.3,73,67,52,30.02,29.87,4,0,11,0.25
2013-9-24,65.0,57.5,54.0,50.4,46.7,39.1,73,67,49,30.01,29.89,4,0,12,0.61
2013-9-25,65.0,57.5,52.0,48.8,44.7,41.4,71,63,47,30.06,29.89,4,0,9,0.03
2013-9-26,69.0,56.7,49.0,50.5,44.5,38.1,72,64,38,30.16,30.06,4,0,10,0.05
2013-9-27,60.0,57.2,50.0,50.6,47.3,39.5,74,69,66,30.15,29.90,4,1,12,0.67
2013-9-28,66.0,61.7,54.0,55.9,51.8,43.7,73,70,63,29.91,29.53,7,2,22,1.74
2013-9-29,64.0,59.4,54.0,53.6,49.3,42.8,72,69,61,29.69,29.37,6,2,17,1.27
2013-9-30,63.0,56.8,48.0,49.7,45.4,39.1,72,66,50,30.00,29.60,5,1,14,0.48
2013-10-1,62.0,55.1,49.0,48.4,44.4,38.9,74,67,55,30.18,29.97,6,1,10,0.27
2013-10-2,61.0,53.1,48.0,49.6,43.2,38.3,73,69,61,30.18,30.07,4,0,9,0.36
2013-10-3,63.0,51.6,42.0,47.1,39.3,31.8,72,63,42,30.40,30.18,4,1,8,0.01
2013-10-4,60.0,49.1,41.0,42.9,37.0,30.5,73,64,44,30.44,30.31,3,1,7,0.00
2013-10-5,63.0,51.3,44.0,41.5,36.3,19.3,74,59,19,30.34,30.13,1,0,7,0.00
2013-10-6,65.0,52.4,42.0,42.8,35.8,28.5,72,55,27,30.14,29.94,6,1,13,0.01
2013-10-7,63.0,55.3,52.0,48.2,42.5,37.2,72,62,41,30.11,29.96,4,1,14,0.30
2013-10-8,60.0,52.7,45.0,48.3,41.9,34.1,73,67,41,30.12,29.98,9,1,18,0.12
2013-10-9,60.0,49.8,42.0,43.2,37.6,32.6,74,63,43,30.13,29.96,3,0,6,0.01
2013-10-10,59.0,52.1,48.0,45.4,40.8,36.8,71,66,56,30.09,29.95,4,1,7,0.03
2013-10-11,60.0,52.2,48.0,45.2,39.3,33.7,71,62,41,30.14,30.08,3,0,5,0.00
2013-10-12,57.0,50.0,42.0,42.1,37.5,31.8,72,63,43,30.17,30.06,4,1,8,0.09
2013-10-13,57.0,47.3,40.0,41.4,34.8,30.5,73,62,44,30.29,30.17,6,1,12,0.00
2013-10-14,59.0,48.1,40.0,39.0,33.7,30.3,72,59,35,30.35,30.26,5,1,10,0.00
2013-10-15,62.0,48.4,38.0,39.6,32.3,15.3,72,57,16,30.32,30.10,5,0,9,0.00
2013-10-16,57.0,49.3,41.0,42.0,37.0,30.9,71,63,51,30.14,30.06,7,1,12,0.00
2013-10-17,59.0,52.3,48.0,41.0,39.0,36.8,69,61,47,30.19,30.10,4,1,9,0.00
2013-10-18,62.0,50.6,41.0,41.9,37.0,30.2,72,61,30,30.16,30.03,2,0,6,0.00
2013-10-19,63.0,52.5,44.0,44.7,39.9,33.0,71,63,44,30.11,30.04,3,0,7,0.00
2013-10-20,55.0,50.7,48.0,42.2,38.5,36.0,69,63,51,30.11,30.03,5,1,8,0.00
2013-10-21,60.0,51.6,47.0,42.8,39.0,36.6,70,62,48,30.06,29.95,2,0,5,0.00
2013-10-22,62.0,52.1,46.0,44.3,39.9,34.9,71,63,48,30.01,29.90,2,0,5,0.00
2013-10-23,60.0,49.6,43.0,46.1,39.1,32.4,73,67,55,29.96,29.83,5,1,12,0.01
2013-10-24,55.0,49.8,45.0,42.6,39.8,36.9,73,68,60,30.06,29.94,4,1,12,0.00
2013-10-25,56.0,50.6,44.0,41.4,38.5,33.0,69,63,53,30.18,30.05,5,1,10,0.00
2013-10-26,53.0,48.6,44.0,38.7,35.7,33.4,70,61,49,30.18,30.04,7,2,15,0.00
2013-10-27,52.0,47.5,41.0,42.2,35.3,29.8,71,63,48,30.04,29.77,8,2,20,0.23
2013-10-28,56.0,45.0,37.0,36.8,27.9,13.5,73,54,19,29.83,29.71,7,1,15,0.00
2013-10-29,52.0,39.8,32.0,31.6,24.0,7.2,71,56,16,29.94,29.77,3,0,5,0.00
2013-10-30,55.0,43.1,31.0,33.5,27.8,21.2,71,56,37,30.04,29.93,5,1,9,0.00
2013-10-31,55.0,51.0,47.0,43.1,39.3,33.1,71,64,54,30.14,30.00,4,1,9,0.09
2013-11-1,62.0,52.4,48.0,50.1,40.5,38.1,71,64,51,30.16,29.80,5,1,11,0.16
2013-11-2,63.0,53.4,40.0,46.4,40.1,29.6,74,62,38,29.90,29.58,7,2,20,0.98
2013-11-3,55.0,48.0,42.0,43.3,37.7,33.0,74,67,52,30.02,29.90,4,0,7,0.10
2013-11-4,55.0,50.3,45.0,43.3,40.0,35.1,71,68,62,30.05,29.96,5,1,14,0.23
2013-11-5,59.0,53.8,51.0,48.5,43.5,41.2,71,68,57,30.13,29.94,5,1,16,0.13
2013-11-6,60.0,54.3,50.0,47.0,43.9,40.2,72,68,57,30.16,29.94,4,0,9,0.28
2013-11-7,59.0,54.8,52.0,47.7,44.1,41.2,72,67,54,29.99,29.73,6,2,14,0.77
2013-11-8,60.0,52.7,47.0,47.8,42.1,36.6,73,67,59,30.07,29.98,3,0,6,0.09
2013-11-9,55.0,50.7,47.0,42.6,40.4,37.2,72,68,57,30.04,29.96,3,0,4,0.02
2013-11-10,60.0,53.0,49.0,45.9,41.7,38.4,72,66,54,30.00,29.95,5,1,10,0.01
2013-11-11,63.0,54.2,50.0,44.7,42.0,39.1,71,64,45,30.05,29.91,4,1,8,0.00
2013-11-12,62.0,56.0,51.0,50.1,45.5,40.4,71,68,62,30.27,29.95,7,1,12,0.10
2013-11-13,62.0,54.0,48.0,49.8,43.1,37.2,73,67,51,30.32,30.17,3,0,6,0.01
2013-11-14,58.0,51.7,47.0,45.8,41.5,37.4,73,68,58,30.18,29.97,3,0,7,0.07
2013-11-15,56.0,52.1,47.0,45.8,42.4,37.4,73,70,65,29.98,29.45,4,1,10,0.71
2013-11-16,56.0,52.2,49.0,45.2,41.6,37.1,72,67,57,29.78,29.46,8,1,15,0.43
2013-11-17,60.0,56.1,51.0,49.4,46.0,41.2,71,69,66,29.87,29.77,4,1,10,0.23
2013-11-18,59.0,58.2,57.0,49.6,47.2,44.1,71,67,62,29.86,29.58,6,2,19,0.28
2013-11-19,60.0,54.1,42.0,51.0,42.0,30.1,72,64,47,29.94,29.60,6,1,12,0.41
2013-11-20,52.0,43.8,33.0,37.0,28.2,18.9,69,56,29,30.32,29.94,7,1,15,0.01
2013-11-21,43.0,34.3,27.0,26.0,18.7,9.6,72,55,26,30.44,30.29,4,1,10,0.00
2013-11-22,49.0,35.1,28.0,25.2,20.6,13.8,70,57,25,30.46,30.27,3,0,6,0.00
2013-11-23,50.0,35.4,26.0,28.4,21.3,15.1,69,58,25,30.31,30.08,2,0,5,0.01
2013-11-24,47.0,35.3,28.0,26.5,19.6,13.4,70,55,27,30.17,30.08,6,0,10,0.00
2013-11-25,48.0,36.8,29.0,24.9,21.5,18.7,68,55,31,30.23,30.10,5,0,9,0.00
2013-11-26,48.0,39.6,30.0,30.3,24.5,18.9,70,56,37,30.15,29.94,4,0,9,0.01
2013-11-27,51.0,41.7,34.0,32.4,27.7,23.3,69,58,36,29.94,29.80,3,0,6,0.00
2013-11-28,49.0,37.3,30.0,29.9,24.3,19.7,71,60,38,30.06,29.92,4,0,9,0.00
2013-11-29,48.0,40.5,31.0,34.1,29.3,21.0,73,64,53,30.19,30.06,4,0,8,0.01
2013-11-30,54.0,48.0,43.0,40.0,37.0,33.2,72,66,56,30.21,30.02,5,0,9,0.22
2013-12-1,57.0,52.1,46.0,49.2,43.4,36.8,76,72,69,30.02,29.75,5,1,17,2.24
2013-12-2,46.0,39.7,30.0,36.8,30.0,21.4,74,68,55,29.92,29.75,5,1,17,0.30
2013-12-3,42.0,32.7,25.0,28.4,22.5,15.2,74,66,49,30.12,29.91,6,1,11,0.00
2013-12-4,39.0,28.6,23.0,22.2,17.3,11.6,74,63,38,30.16,30.03,3,0,5,0.00
2013-12-5,39.0,28.7,23.0,23.7,15.7,9.9,71,58,42,30.13,29.90,3,0,7,0.00
2013-12-6,31.0,27.1,20.0,16.8,8.1,-6.0,65,45,26,29.98,29.76,6,2,11,0.01
2013-12-7,27.0,20.5,14.0,6.4,-2.4,-21.4,58,38,11,30.18,29.94,3,0,9,0.00
2013-12-8,25.0,17.3,11.0,11.0,2.0,-4.1,63,51,31,30.29,30.17,5,0,9,0.00
2013-12-9,27.0,21.2,10.0,12.7,7.5,-0.5,67,55,40,30.31,30.07,4,1,10,0.00
2013-12-10,31.0,27.6,24.0,22.0,18.2,11.7,73,68,59,30.26,30.10,5,1,11,0.07
2013-12-11,34.0,27.8,23.0,23.8,19.0,14.3,73,69,62,30.16,29.94,4,0,7,0.00
2013-12-12,38.0,31.1,22.0,29.4,21.6,12.6,72,68,59,29.97,29.87,5,1,10,0.09
2013-12-13,46.0,40.4,36.0,36.4,31.9,28.5,76,72,67,30.18,29.95,4,0,7,0.02
2013-12-14,45.0,40.3,37.0,35.1,31.3,28.5,75,70,63,30.20,30.11,5,1,11,0.00
2013-12-15,48.0,42.9,39.0,37.4,33.7,30.4,73,70,64,30.22,30.14,5,1,11,0.07
2013-12-16,45.0,42.4,38.0,35.6,33.6,31.4,78,71,65,30.23,30.03,5,1,10,0.01
2013-12-17,44.0,40.6,38.0,33.0,30.6,28.4,71,67,61,30.03,29.93,5,2,10,0.01
2013-12-18,47.0,38.7,30.0,37.0,29.4,20.7,73,69,63,29.95,29.83,4,0,9,0.06
2013-12-19,41.0,33.2,28.0,28.6,23.3,19.1,74,67,45,30.07,29.90,3,0,6,0.01
2013-12-20,42.0,37.7,34.0,34.0,28.8,25.5,73,70,68,29.98,29.61,5,1,17,0.42
2013-12-21,44.0,38.9,36.0,35.2,30.6,28.2,75,72,66,30.35,29.64,3,0,7,0.05
2013-12-22,45.0,41.5,39.0,36.2,33.2,30.7,76,72,68,30.47,30.14,5,1,9,0.02
2013-12-23,48.0,41.5,35.0,39.8,33.1,26.2,75,72,62,30.63,30.39,4,1,12,0.40
2013-12-24,43.0,39.0,32.0,34.6,30.4,23.0,75,71,67,30.70,30.57,4,0,7,0.01
2013-12-25,40.0,35.3,32.0,29.3,26.1,22.6,73,69,61,30.59,30.48,6,2,10,0.00
2013-12-26,39.0,34.6,32.0,28.4,25.4,23.0,72,69,62,30.51,30.31,5,2,12,0.00
2013-12-27,43.0,36.9,33.0,30.9,27.1,23.9,71,68,58,30.47,30.29,6,2,13,0.01
2013-12-28,45.0,37.5,31.0,34.7,27.6,21.0,73,67,57,30.58,30.45,4,0,10,0.00
2013-12-29,43.0,37.4,33.0,30.9,27.9,25.0,75,68,57,30.56,30.37,4,0,7,0.00
2013-12-30,42.0,38.0,33.0,31.5,28.3,23.6,74,68,61,30.39,30.25,6,1,12,0.00
2013-12-31,48.0,41.4,35.0,36.4,32.1,26.9,74,69,61,30.41,30.29,3,0,6,0.02
2014-1-1,47.0,42.1,36.0,35.1,32.5,27.2,73,68,60,30.42,30.18,3,0,5,0.00
2014-1-2,47.0,41.4,37.0,34.3,30.6,27.1,74,65,53,30.29,29.99,5,2,13,0.20